Time;durP1;ratioP1;P1;durP2;ratioP2;P2;SDS_P1;SDS_P2;PMS_P1;PMS_P2;Temp;Humidity;BMP_temperature;BMP_pressure;BME280_temperature;BME280_humidity;BME280_pressure;Samples;Min_cycle;Max_cycle;Signal;HPM_P1;HPM_P2
2021/10/13 00:02:15;;;;;;;5.00;4.50;;;13.30;69.20;;;;;;5029828;28;20503;-87
2021/10/13 00:04:41;;;;;;;4.55;4.32;;;13.30;69.20;;;;;;5030933;28;20038;-87
2021/10/13 00:07:07;;;;;;;4.20;4.00;;;13.30;69.20;;;;;;5030844;28;20041;-88
2021/10/13 00:09:33;;;;;;;4.80;4.50;;;13.30;69.30;;;;;;5014186;28;20037;-87
2021/10/13 00:11:59;;;;;;;4.60;4.30;;;13.30;69.30;;;;;;5031456;28;20037;-87
2021/10/13 00:14:25;;;;;;;4.40;4.20;;;13.30;70.10;;;;;;5014362;28;20033;-87
2021/10/13 00:16:54;;;;;;;5.38;5.07;;;13.30;69.30;;;;;;5030170;28;20033;-89
2021/10/13 00:19:20;;;;;;;4.30;4.10;;;13.30;69.40;;;;;;5030882;28;20021;-87
2021/10/13 00:21:46;;;;;;;4.28;4.07;;;13.30;69.40;;;;;;5030507;28;20056;-88
2021/10/13 00:24:12;;;;;;;4.22;4.03;;;13.30;69.40;;;;;;5030716;28;20032;-88
2021/10/13 00:26:39;;;;;;;4.32;4.13;;;13.30;69.40;;;;;;5030014;28;20029;-87
2021/10/13 00:29:05;;;;;;;5.25;4.82;;;13.20;69.50;;;;;;5034939;28;20477;-88
2021/10/13 00:31:31;;;;;;;4.47;4.28;;;13.20;69.50;;;;;;5035174;28;20034;-88
2021/10/13 00:33:57;;;;;;;4.10;3.90;;;13.20;69.50;;;;;;5035793;28;20025;-87
2021/10/13 00:36:23;;;;;;;4.15;3.95;;;13.20;69.50;;;;;;5036078;28;20037;-87
2021/10/13 00:38:49;;;;;;;4.10;3.90;;;13.20;69.60;;;;;;5034360;28;20503;-87
2021/10/13 00:41:15;;;;;;;4.88;4.32;;;13.20;69.60;;;;;;5034024;28;20052;-87
2021/10/13 00:43:44;;;;;;;4.57;4.35;;;13.20;69.60;;;;;;5035587;28;20029;-88
2021/10/13 00:46:10;;;;;;;4.53;4.18;;;13.20;69.70;;;;;;5033781;28;20041;-88
2021/10/13 00:48:36;;;;;;;4.60;4.40;;;13.20;69.70;;;;;;5034748;28;20028;-86
2021/10/13 00:51:02;;;;;;;4.47;4.28;;;13.10;69.80;;;;;;5017883;28;20391;-88
2021/10/13 00:53:29;;;;;;;4.50;4.30;;;13.10;69.90;;;;;;5034052;28;20026;-87
2021/10/13 00:55:56;;;;;;;4.30;4.10;;;13.10;70.00;;;;;;5033724;28;20026;-87
2021/10/13 00:58:24;;;;;;;4.70;4.40;;;13.00;69.90;;;;;;5034225;28;20048;-87
2021/10/13 01:01:15;;;;;;;4.63;4.22;;;13.00;70.00;;;;;;5017130;28;20038;-88
2021/10/13 01:03:59;;;;;;;4.40;4.20;;;12.90;69.90;;;;;;5034028;28;20522;-87
2021/10/13 01:06:39;;;;;;;3.90;3.70;;;13.00;70.10;;;;;;5034118;28;20034;-88
2021/10/13 01:09:17;;;;;;;4.10;3.90;;;12.90;70.00;;;;;;5035147;28;20479;-88
2021/10/13 01:12:08;;;;;;;4.18;3.97;;;12.90;70.10;;;;;;5017331;28;20040;-87
2021/10/13 01:14:43;;;;;;;3.92;3.72;;;12.90;70.20;;;;;;5035001;28;20021;-88
2021/10/13 01:17:13;;;;;;;4.35;4.15;;;12.80;70.10;;;;;;5066364;28;20030;-87
2021/10/13 01:19:45;;;;;;;4.32;4.13;;;12.80;70.20;;;;;;5033680;28;20022;-87
2021/10/13 01:22:37;;;;;;;4.20;4.00;;;12.70;70.20;;;;;;5033453;28;20056;-88
2021/10/13 01:25:40;;;;;;;3.88;3.67;;;12.70;70.20;;;;;;5033298;28;20495;-88
2021/10/13 01:28:18;;;;;;;4.30;4.10;;;12.70;70.30;;;;;;5033635;28;20041;-88
2021/10/13 01:30:45;;;;;;;3.92;3.72;;;12.60;70.30;;;;;;5029294;28;20022;-88
2021/10/13 01:33:24;;;;;;;4.05;3.85;;;12.60;70.30;;;;;;5033496;28;20037;-87
2021/10/13 01:35:52;;;;;;;4.60;4.40;;;12.60;70.40;;;;;;5033310;28;20029;-88
2021/10/13 01:38:19;;;;;;;4.10;3.90;;;12.60;70.40;;;;;;5016777;28;20033;-87
2021/10/13 01:40:46;;;;;;;3.92;3.72;;;12.60;70.50;;;;;;5000074;28;20096;-87
2021/10/13 01:43:12;;;;;;;4.20;4.00;;;12.50;70.50;;;;;;5000891;28;20037;-88
2021/10/13 01:45:44;;;;;;;3.83;3.63;;;12.50;70.50;;;;;;5032813;28;20037;-89
2021/10/13 01:48:12;;;;;;;4.07;3.88;;;12.50;70.50;;;;;;5016903;28;20519;-87
2021/10/13 01:50:38;;;;;;;4.05;3.85;;;12.40;70.50;;;;;;5033063;28;20022;-88
2021/10/13 01:53:06;;;;;;;4.10;3.90;;;12.40;70.60;;;;;;5016399;28;20021;-88
2021/10/13 01:55:32;;;;;;;4.13;3.92;;;12.40;70.60;;;;;;5016889;28;20022;-88
2021/10/13 01:57:58;;;;;;;4.10;3.90;;;12.40;70.60;;;;;;5016559;28;20040;-88
2021/10/13 02:00:24;;;;;;;4.07;3.88;;;12.40;70.60;;;;;;5031576;28;20052;-87
2021/10/13 02:02:51;;;;;;;14.20;4.15;;;12.40;70.70;;;;;;5013693;28;20460;-88
2021/10/13 02:05:17;;;;;;;4.68;4.30;;;12.30;71.40;;;;;;5014458;28;20033;-88
2021/10/13 02:07:44;;;;;;;4.68;4.40;;;12.30;70.70;;;;;;5008701;28;20055;-87
2021/10/13 02:10:10;;;;;;;4.05;3.85;;;12.30;70.70;;;;;;5030565;28;20044;-87
2021/10/13 02:12:39;;;;;;;4.40;4.20;;;12.30;70.80;;;;;;5031397;28;20028;-88
2021/10/13 02:15:06;;;;;;;4.10;3.90;;;12.30;70.80;;;;;;5013271;28;20396;-88
2021/10/13 02:17:45;;;;;;;4.20;4.00;;;12.20;70.80;;;;;;5046689;28;20037;-87
2021/10/13 02:20:12;;;;;;;4.15;3.92;;;12.20;70.80;;;;;;5012214;28;20041;-88
2021/10/13 02:22:39;;;;;;;3.90;3.70;;;12.20;70.80;;;;;;5031421;28;20041;-87
2021/10/13 02:25:05;;;;;;;4.05;3.85;;;12.20;70.80;;;;;;5029889;28;20045;-89
2021/10/13 02:28:00;;;;;;;7.05;4.57;;;12.20;70.90;;;;;;5014455;28;20045;-88
2021/10/13 02:30:26;;;;;;;4.07;3.88;;;12.20;71.00;;;;;;5029916;28;20034;-88
2021/10/13 02:32:52;;;;;;;4.65;4.45;;;12.10;70.80;;;;;;5027405;28;20064;-88
2021/10/13 02:35:18;;;;;;;5.07;4.68;;;12.10;70.80;;;;;;5031603;28;20037;-88
2021/10/13 02:37:45;;;;;;;4.47;4.18;;;12.10;70.90;;;;;;5036678;28;20357;-88
2021/10/13 02:40:11;;;;;;;4.20;4.00;;;12.10;71.00;;;;;;5032354;28;20030;-88
2021/10/13 02:42:37;;;;;;;4.30;4.10;;;12.10;71.00;;;;;;5015887;28;20056;-86
2021/10/13 02:45:04;;;;;;;4.10;3.90;;;12.10;71.00;;;;;;5015424;28;20018;-88
2021/10/13 02:47:48;;;;;;;4.10;3.90;;;12.00;71.00;;;;;;5031989;28;20033;-87
2021/10/13 02:50:22;;;;;;;4.10;3.90;;;12.00;71.10;;;;;;5033248;28;20033;-88
2021/10/13 02:53:25;;;;;;;3.70;3.50;;;11.90;71.00;;;;;;5015988;28;20017;-88
2021/10/13 02:55:57;;;;;;;3.88;3.67;;;11.90;71.10;;;;;;5022300;28;20021;-88
2021/10/13 02:58:46;;;;;;;4.00;3.80;;;11.80;71.10;;;;;;5016157;28;20388;-88
2021/10/13 03:01:15;;;;;;;3.90;3.70;;;11.80;71.10;;;;;;5015517;28;20053;-88
2021/10/13 03:03:45;;;;;;;3.90;3.70;;;11.80;71.10;;;;;;5032247;28;20025;-87
2021/10/13 03:06:12;;;;;;;4.22;4.03;;;11.80;71.20;;;;;;5032496;28;20033;-88
2021/10/13 03:08:38;;;;;;;4.20;4.00;;;11.70;71.10;;;;;;5015253;28;20042;-87
2021/10/13 03:11:04;;;;;;;4.10;3.90;;;11.70;71.10;;;;;;5015203;28;20040;-87
2021/10/13 03:13:32;;;;;;;4.65;4.32;;;11.70;71.20;;;;;;5015134;28;20029;-87
2021/10/13 03:16:00;;;;;;;4.43;4.20;;;11.70;71.20;;;;;;5014889;28;20096;-87
2021/10/13 03:18:27;;;;;;;4.38;4.07;;;11.70;71.20;;;;;;5031793;28;20477;-88
2021/10/13 03:20:53;;;;;;;3.95;3.75;;;11.70;71.20;;;;;;5030837;28;20037;-87
2021/10/13 03:23:19;;;;;;;3.85;3.65;;;11.70;71.20;;;;;;5015052;28;20048;-87
2021/10/13 03:25:45;;;;;;;4.22;4.03;;;11.70;71.20;;;;;;5031419;28;20398;-87
2021/10/13 03:28:12;;;;;;;3.75;3.55;;;11.70;71.30;;;;;;4998744;28;20037;-88
2021/10/13 03:30:39;;;;;;;4.13;3.92;;;11.70;71.30;;;;;;5032435;28;20053;-88
2021/10/13 03:33:05;;;;;;;3.90;3.70;;;11.60;71.30;;;;;;5031341;28;20060;-89
2021/10/13 03:35:32;;;;;;;3.88;3.67;;;11.60;71.30;;;;;;5014112;28;20041;-89
2021/10/13 03:38:00;;;;;;;4.10;3.90;;;11.60;71.30;;;;;;5014979;28;20056;-89
2021/10/13 03:40:26;;;;;;;4.20;4.00;;;11.60;71.40;;;;;;5015032;28;20380;-90
2021/10/13 03:42:52;;;;;;;3.95;3.75;;;11.60;71.40;;;;;;5014939;28;20037;-90
2021/10/13 03:45:19;;;;;;;4.75;4.32;;;11.50;71.40;;;;;;5013996;28;20033;-89
2021/10/13 03:47:46;;;;;;;3.90;3.70;;;11.50;71.40;;;;;;5014930;28;20033;-89
2021/10/13 03:50:13;;;;;;;4.00;3.80;;;11.50;71.50;;;;;;5030746;28;20022;-89
2021/10/13 03:52:39;;;;;;;4.00;3.80;;;11.50;71.50;;;;;;5014747;28;20036;-88
2021/10/13 03:55:06;;;;;;;4.00;3.80;;;11.40;71.50;;;;;;5014712;28;20041;-90
2021/10/13 03:57:32;;;;;;;3.88;3.67;;;11.40;71.40;;;;;;5031556;28;20404;-89
2021/10/13 03:59:58;;;;;;;3.80;3.60;;;11.40;71.50;;;;;;5031162;28;20044;-89
2021/10/13 04:02:24;;;;;;;4.22;3.83;;;11.40;71.50;;;;;;5031561;28;20045;-90
2021/10/13 04:04:50;;;;;;;4.13;3.92;;;11.30;71.60;;;;;;5030968;28;20037;-88
2021/10/13 04:07:16;;;;;;;4.20;3.83;;;11.30;71.60;;;;;;5016676;28;20033;-89
2021/10/13 04:09:42;;;;;;;3.80;3.60;;;11.30;71.60;;;;;;5014431;28;20049;-89
2021/10/13 04:12:08;;;;;;;3.70;3.50;;;11.30;71.60;;;;;;5032061;28;20044;-89
2021/10/13 04:14:34;;;;;;;3.70;3.50;;;11.30;71.70;;;;;;5032142;28;20026;-89
2021/10/13 04:17:01;;;;;;;4.10;3.90;;;11.30;71.70;;;;;;5031519;28;20037;-89
2021/10/13 04:19:27;;;;;;;3.95;3.75;;;11.30;71.70;;;;;;5030534;28;20388;-89
2021/10/13 04:21:53;;;;;;;4.03;3.83;;;11.30;71.70;;;;;;5014542;28;20048;-90
2021/10/13 04:24:19;;;;;;;3.80;3.60;;;11.30;71.70;;;;;;5031041;28;20384;-89
2021/10/13 04:26:45;;;;;;;6.95;4.20;;;11.30;71.70;;;;;;5030786;28;20049;-89
2021/10/13 04:29:11;;;;;;;3.65;3.45;;;11.20;71.60;;;;;;5032160;28;20393;-89
2021/10/13 04:31:37;;;;;;;3.90;3.70;;;11.30;71.70;;;;;;5030105;28;20467;-89
2021/10/13 04:34:03;;;;;;;3.90;3.70;;;11.20;71.60;;;;;;5030066;28;20042;-88
2021/10/13 04:36:29;;;;;;;3.70;3.50;;;11.20;71.70;;;;;;5032468;28;20384;-89
2021/10/13 04:38:55;;;;;;;4.07;3.88;;;11.20;71.70;;;;;;5031809;28;20033;-90
2021/10/13 04:41:21;;;;;;;4.63;4.00;;;11.20;71.70;;;;;;5014469;28;20041;-90
2021/10/13 04:43:47;;;;;;;3.60;3.40;;;11.20;71.70;;;;;;5030875;28;20033;-89
2021/10/13 04:46:14;;;;;;;4.10;3.80;;;11.10;71.70;;;;;;5031333;28;20042;-88
2021/10/13 04:48:40;;;;;;;3.60;3.40;;;11.20;71.70;;;;;;5030707;28;20045;-90
2021/10/13 04:51:06;;;;;;;3.70;3.50;;;11.10;71.70;;;;;;5030353;28;20038;-88
2021/10/13 04:53:32;;;;;;;3.53;3.40;;;11.10;71.70;;;;;;5030513;28;20510;-88
2021/10/13 04:55:58;;;;;;;3.85;3.65;;;11.10;71.80;;;;;;5031678;28;20029;-88
2021/10/13 04:58:24;;;;;;;4.47;4.18;;;11.10;71.80;;;;;;5031802;28;20486;-89
2021/10/13 05:00:50;;;;;;;3.80;3.60;;;11.00;71.80;;;;;;5031297;28;20420;-89
2021/10/13 05:03:16;;;;;;;4.15;3.85;;;11.00;71.90;;;;;;5030452;28;20042;-89
2021/10/13 05:05:42;;;;;;;3.20;3.10;;;11.00;71.90;;;;;;5014127;28;20030;-88
2021/10/13 05:08:08;;;;;;;3.58;3.38;;;11.00;71.90;;;;;;5030407;28;20048;-89
2021/10/13 05:10:37;;;;;;;3.50;3.30;;;11.00;71.90;;;;;;5030486;28;20488;-89
2021/10/13 05:13:04;;;;;;;3.78;3.58;;;10.90;71.80;;;;;;5030537;28;20033;-88
2021/10/13 05:15:30;;;;;;;3.70;3.50;;;11.00;71.90;;;;;;5035016;28;20038;-88
2021/10/13 05:17:56;;;;;;;3.83;3.63;;;10.90;72.60;;;;;;5016654;28;20040;-88
2021/10/13 05:20:22;;;;;;;3.55;3.38;;;10.90;71.80;;;;;;5033827;28;20037;-89
2021/10/13 05:22:48;;;;;;;3.65;3.45;;;10.90;71.90;;;;;;5034889;28;20036;-89
2021/10/13 05:25:14;;;;;;;3.70;3.50;;;10.90;72.00;;;;;;5017413;28;20037;-87
2021/10/13 05:27:40;;;;;;;3.72;3.50;;;10.80;72.00;;;;;;5035380;28;20380;-89
2021/10/13 05:30:07;;;;;;;3.80;3.60;;;10.80;72.00;;;;;;5033108;28;20311;-88
2021/10/13 05:32:33;;;;;;;3.80;3.60;;;10.80;72.10;;;;;;5017337;28;20040;-88
2021/10/13 05:34:59;;;;;;;3.58;3.40;;;10.80;72.00;;;;;;5000386;28;20031;-89
2021/10/13 05:37:25;;;;;;;3.45;3.25;;;10.80;72.00;;;;;;5016565;28;20073;-89
2021/10/13 05:39:51;;;;;;;3.60;3.40;;;10.80;72.10;;;;;;5017132;28;20388;-88
2021/10/13 05:42:17;;;;;;;3.50;3.30;;;10.80;72.10;;;;;;5033655;28;20046;-88
2021/10/13 05:44:43;;;;;;;3.95;3.75;;;10.70;72.10;;;;;;5034503;28;20036;-88
2021/10/13 05:47:10;;;;;;;3.83;3.63;;;10.70;72.20;;;;;;5032562;28;20041;-88
2021/10/13 05:49:37;;;;;;;3.78;3.58;;;10.70;72.20;;;;;;5016592;28;20029;-88
2021/10/13 05:52:05;;;;;;;3.53;3.40;;;10.70;72.20;;;;;;5033283;28;20044;-88
2021/10/13 05:54:31;;;;;;;3.42;3.30;;;10.70;72.20;;;;;;5016590;28;20409;-87
2021/10/13 05:56:57;;;;;;;3.85;3.65;;;10.70;72.20;;;;;;5032997;28;20048;-88
2021/10/13 05:59:23;;;;;;;3.60;3.40;;;10.70;72.20;;;;;;5015912;28;20044;-88
2021/10/13 06:01:49;;;;;;;3.72;3.53;;;10.70;72.20;;;;;;5032049;28;20042;-88
2021/10/13 06:04:15;;;;;;;3.78;3.58;;;10.70;72.20;;;;;;5016351;28;20029;-89
2021/10/13 06:06:41;;;;;;;3.72;3.53;;;10.60;72.20;;;;;;5034367;28;20036;-88
2021/10/13 06:09:07;;;;;;;3.60;3.40;;;10.60;72.20;;;;;;5032247;28;20042;-88
2021/10/13 06:11:34;;;;;;;3.40;3.30;;;10.60;72.20;;;;;;5033860;28;20048;-88
2021/10/13 06:14:00;;;;;;;3.95;3.75;;;10.60;72.20;;;;;;5015951;28;20037;-87
2021/10/13 06:16:26;;;;;;;3.80;3.60;;;10.60;72.20;;;;;;5032107;28;20071;-87
2021/10/13 06:18:52;;;;;;;4.13;3.92;;;10.50;72.20;;;;;;5034150;28;20385;-88
2021/10/13 06:21:20;;;;;;;3.58;3.40;;;10.50;72.20;;;;;;5032683;28;20041;-87
2021/10/13 06:23:46;;;;;;;3.72;3.53;;;10.50;72.20;;;;;;5016126;28;20040;-88
2021/10/13 06:26:13;;;;;;;3.75;3.55;;;10.50;72.20;;;;;;5032621;28;20030;-87
2021/10/13 06:28:39;;;;;;;3.30;3.20;;;10.50;72.20;;;;;;5015684;28;20053;-88
2021/10/13 06:31:05;;;;;;;3.40;3.30;;;10.50;72.20;;;;;;5031947;28;20029;-87
2021/10/13 06:33:32;;;;;;;3.75;3.55;;;10.60;72.20;;;;;;5032845;28;20368;-87
2021/10/13 06:36:02;;;;;;;3.63;3.42;;;10.50;72.10;;;;;;5031907;28;20435;-87
2021/10/13 06:38:28;;;;;;;4.05;3.85;;;10.50;72.10;;;;;;5032431;28;20376;-87
2021/10/13 06:40:54;;;;;;;3.38;3.28;;;10.50;72.10;;;;;;5033229;28;20036;-87
2021/10/13 06:43:20;;;;;;;3.78;3.58;;;10.50;72.10;;;;;;5033303;28;20037;-87
2021/10/13 06:45:46;;;;;;;3.60;3.40;;;10.50;72.10;;;;;;5015674;28;20395;-88
2021/10/13 06:48:13;;;;;;;3.72;3.53;;;10.60;72.20;;;;;;5015087;28;20057;-88
2021/10/13 06:50:39;;;;;;;3.55;3.38;;;10.60;72.20;;;;;;5015599;28;20045;-87
2021/10/13 06:53:05;;;;;;;3.33;3.22;;;10.60;72.20;;;;;;5015643;28;20033;-87
2021/10/13 06:55:31;;;;;;;3.80;3.60;;;10.60;72.10;;;;;;5015566;28;20041;-88
2021/10/13 06:57:57;;;;;;;3.60;3.40;;;10.60;72.00;;;;;;5032885;28;20029;-87
2021/10/13 07:00:23;;;;;;;3.70;3.50;;;10.70;72.00;;;;;;5031483;28;20054;-89
2021/10/13 07:02:49;;;;;;;3.30;3.20;;;10.70;72.00;;;;;;5031832;28;20105;-88
2021/10/13 07:05:16;;;;;;;3.88;3.67;;;10.70;72.00;;;;;;5033064;28;20029;-89
2021/10/13 07:07:47;;;;;;;3.85;3.65;;;10.70;71.90;;;;;;5031299;28;20109;-88
2021/10/13 07:10:14;;;;;;;4.10;3.90;;;10.70;71.80;;;;;;5031756;28;20025;-88
2021/10/13 07:12:40;;;;;;;3.70;3.50;;;10.80;71.90;;;;;;5031750;28;20033;-89
2021/10/13 07:15:06;;;;;;;3.25;3.15;;;10.80;71.70;;;;;;5031357;28;20423;-88
2021/10/13 07:17:32;;;;;;;5.05;4.65;;;10.90;71.70;;;;;;5031841;28;20038;-88
2021/10/13 07:20:02;;;;;;;3.33;3.10;;;10.90;71.50;;;;;;5031537;28;20037;-89
2021/10/13 07:22:28;;;;;;;4.03;3.83;;;11.00;71.60;;;;;;5031784;28;20044;-89
2021/10/13 07:24:56;;;;;;;3.30;3.20;;;11.10;71.60;;;;;;5015260;28;20044;-88
2021/10/13 07:27:22;;;;;;;3.63;3.42;;;11.20;71.40;;;;;;5031550;28;20374;-89
2021/10/13 07:29:56;;;;;;;3.72;3.53;;;11.40;71.10;;;;;;5015116;28;20027;-89
2021/10/13 07:32:26;;;;;;;4.05;3.85;;;11.60;70.60;;;;;;5030835;28;20038;-88
2021/10/13 07:34:52;;;;;;;5.90;4.15;;;12.00;70.00;;;;;;5031409;28;20028;-89
2021/10/13 07:37:19;;;;;;;4.47;4.28;;;12.40;69.20;;;;;;5014721;28;20042;-88
2021/10/13 07:39:45;;;;;;;4.93;4.72;;;12.80;68.50;;;;;;5027568;28;20378;-89
2021/10/13 07:42:11;;;;;;;4.45;4.25;;;13.20;67.70;;;;;;5014539;28;20052;-89
2021/10/13 07:44:38;;;;;;;4.53;4.32;;;13.50;67.10;;;;;;5040236;28;20041;-90
2021/10/13 07:47:04;;;;;;;4.88;4.57;;;13.80;66.70;;;;;;5014190;28;20033;-89
2021/10/13 07:49:30;;;;;;;4.65;4.45;;;14.10;66.30;;;;;;4998031;28;20517;-90
2021/10/13 07:51:56;;;;;;;5.82;5.53;;;14.30;66.00;;;;;;5032463;28;20022;-89
2021/10/13 07:54:22;;;;;;;4.85;4.65;;;14.50;65.60;;;;;;5031391;28;20025;-89
2021/10/13 07:56:48;;;;;;;5.90;5.60;;;14.60;65.50;;;;;;5031839;28;20026;-89
2021/10/13 07:59:15;;;;;;;5.70;5.40;;;14.80;65.50;;;;;;5014794;28;20029;-89
2021/10/13 08:01:41;;;;;;;5.20;5.00;;;15.00;65.50;;;;;;5014241;28;20500;-91
2021/10/13 08:04:07;;;;;;;4.97;4.68;;;15.10;65.30;;;;;;5030991;28;20025;-90
2021/10/13 08:06:33;;;;;;;4.90;4.70;;;15.30;65.10;;;;;;5031802;28;20029;-90
2021/10/13 08:08:59;;;;;;;6.55;6.15;;;15.50;64.90;;;;;;5031211;28;20037;-89
2021/10/13 08:11:26;;;;;;;6.88;6.57;;;15.80;64.70;;;;;;5030898;28;20036;-89
2021/10/13 08:13:52;;;;;;;6.85;6.45;;;15.90;64.40;;;;;;5030863;28;20026;-89
2021/10/13 08:16:18;;;;;;;6.68;6.38;;;16.10;64.40;;;;;;5014875;28;20037;-90
2021/10/13 08:18:44;;;;;;;6.72;6.22;;;16.20;64.30;;;;;;5031412;28;20041;-90
2021/10/13 08:21:10;;;;;;;7.63;7.13;;;16.30;64.30;;;;;;5014567;28;20507;-90
2021/10/13 08:23:36;;;;;;;6.65;6.35;;;16.20;64.40;;;;;;5023884;28;20041;-90
2021/10/13 08:26:02;;;;;;;6.85;6.55;;;16.10;64.80;;;;;;5014142;28;20021;-90
2021/10/13 08:28:29;;;;;;;7.40;7.00;;;16.00;65.40;;;;;;5031085;28;20037;-90
2021/10/13 08:30:55;;;;;;;9.88;6.50;;;15.80;66.00;;;;;;5030961;28;20036;-91
2021/10/13 08:33:21;;;;;;;7.05;6.65;;;15.80;66.40;;;;;;5012327;28;20064;-90
2021/10/13 08:35:47;;;;;;;6.18;5.88;;;15.70;66.60;;;;;;5022270;28;20030;-90
2021/10/13 08:38:14;;;;;;;6.07;5.78;;;15.70;66.80;;;;;;4998530;28;20042;-90
2021/10/13 08:40:40;;;;;;;6.40;5.90;;;15.70;67.10;;;;;;5014320;28;20026;-90
2021/10/13 08:43:06;;;;;;;6.25;5.95;;;15.80;67.10;;;;;;5014204;28;20046;-90
2021/10/13 08:45:33;;;;;;;6.20;5.90;;;15.80;67.00;;;;;;5031714;28;20048;-90
2021/10/13 08:47:59;;;;;;;6.00;5.70;;;15.80;66.90;;;;;;5030787;28;20033;-90
2021/10/13 08:50:26;;;;;;;7.22;6.80;;;15.80;66.70;;;;;;5017774;28;20495;-90
2021/10/13 08:52:57;;;;;;;6.65;6.35;;;15.80;66.90;;;;;;5035524;28;20404;-89
2021/10/13 08:55:23;;;;;;;6.10;5.80;;;15.70;67.00;;;;;;5018085;28;20045;-89
2021/10/13 08:58:07;;;;;;;6.28;5.97;;;15.70;67.00;;;;;;5034892;28;20268;-90
2021/10/13 09:00:33;;;;;;;7.35;6.82;;;15.60;67.30;;;;;;5032675;28;20043;-90
2021/10/13 09:02:59;;;;;;;5.55;5.30;;;15.60;67.60;;;;;;5017327;28;20488;-89
2021/10/13 09:05:25;;;;;;;5.50;5.20;;;15.60;67.70;;;;;;5017740;28;20464;-90
2021/10/13 09:07:53;;;;;;;6.70;6.30;;;15.50;67.80;;;;;;5034454;28;20032;-89
2021/10/13 09:10:33;;;;;;;6.72;6.22;;;15.50;68.00;;;;;;5034960;28;20034;-89
2021/10/13 09:13:00;;;;;;;5.68;5.38;;;15.50;68.10;;;;;;5002193;28;20045;-90
2021/10/13 09:15:28;;;;;;;5.50;5.20;;;15.50;68.20;;;;;;5018122;28;20044;-88
2021/10/13 09:18:04;;;;;;;8.40;7.50;;;15.50;68.30;;;;;;5017605;28;20415;-89
2021/10/13 09:20:35;;;;;;;6.43;6.05;;;15.50;68.10;;;;;;5018665;28;20023;-89
2021/10/13 09:23:01;;;;;;;;;;;15.60;68.20;;;;;;5017122;28;20042;-87
2021/10/13 09:25:27;;;;;;;7.32;6.90;;;15.70;68.10;;;;;;5035005;28;19909;-89
2021/10/13 09:27:54;;;;;;;5.85;5.55;;;15.70;68.00;;;;;;5017542;28;20025;-89
2021/10/13 09:30:49;;;;;;;6.10;5.80;;;15.70;68.10;;;;;;5033205;28;20038;-88
2021/10/13 09:33:16;;;;;;;6.13;5.82;;;15.70;68.10;;;;;;5041369;28;20037;-88
2021/10/13 09:35:43;;;;;;;5.90;5.60;;;15.70;68.20;;;;;;5000858;28;20042;-88
2021/10/13 09:38:12;;;;;;;5.63;5.32;;;15.70;68.20;;;;;;5034082;28;20075;-89
2021/10/13 09:40:38;;;;;;;5.53;5.32;;;15.70;68.30;;;;;;5017156;28;20037;-86
2021/10/13 09:43:04;;;;;;;5.88;5.57;;;15.70;68.30;;;;;;5033279;28;20471;-89
2021/10/13 09:45:33;;;;;;;6.50;6.20;;;15.80;68.20;;;;;;5033233;28;20037;-88
2021/10/13 09:48:00;;;;;;;6.15;5.80;;;15.80;68.10;;;;;;5033239;28;20484;-87
2021/10/13 09:50:39;;;;;;;6.60;6.15;;;15.90;68.00;;;;;;5016849;28;20032;-88
2021/10/13 09:53:19;;;;;;;7.90;6.82;;;15.90;67.90;;;;;;5065893;28;20041;-88
2021/10/13 09:55:45;;;;;;;6.18;5.88;;;16.00;67.80;;;;;;5017296;28;20026;-87
2021/10/13 09:58:28;;;;;;;7.40;6.90;;;16.00;67.80;;;;;;5000315;28;20052;-88
2021/10/13 10:01:10;;;;;;;5.80;5.50;;;16.10;67.70;;;;;;5030305;28;20052;-88
2021/10/13 10:03:36;;;;;;;6.15;5.85;;;16.20;67.40;;;;;;5034490;28;20056;-88
2021/10/13 10:06:03;;;;;;;6.80;6.40;;;16.30;67.40;;;;;;5015599;28;20033;-87
2021/10/13 10:08:29;;;;;;;6.28;5.97;;;16.40;67.20;;;;;;5016576;28;20029;-88
2021/10/13 10:11:06;;;;;;;6.32;6.03;;;16.40;67.10;;;;;;5016096;28;20025;-87
2021/10/13 10:13:34;;;;;;;6.03;5.72;;;16.50;67.00;;;;;;5016539;28;20029;-88
2021/10/13 10:16:00;;;;;;;6.20;5.90;;;16.50;66.80;;;;;;5032432;28;20025;-87
2021/10/13 10:18:32;;;;;;;5.72;5.43;;;16.50;66.80;;;;;;5032142;28;20045;-88
2021/10/13 10:21:24;;;;;;;6.13;5.72;;;16.50;66.80;;;;;;5032114;28;20040;-88
2021/10/13 10:24:12;;;;;;;5.65;5.35;;;16.60;66.90;;;;;;5032275;28;20048;-87
2021/10/13 10:26:38;;;;;;;5.25;5.05;;;16.50;66.60;;;;;;5033699;28;20029;-86
2021/10/13 10:29:12;;;;;;;5.78;5.45;;;16.50;66.80;;;;;;4999184;28;20388;-87
2021/10/13 10:31:39;;;;;;;6.43;5.93;;;16.40;66.80;;;;;;5015797;28;20029;-87
2021/10/13 10:34:05;;;;;;;6.60;6.10;;;16.50;66.90;;;;;;5015997;28;20030;-86
2021/10/13 10:36:34;;;;;;;9.98;5.85;;;16.50;66.80;;;;;;5033604;28;20038;-87
2021/10/13 10:39:08;;;;;;;5.70;5.40;;;16.70;66.70;;;;;;5033500;28;20036;-86
2021/10/13 10:41:42;;;;;;;5.60;5.30;;;16.80;66.50;;;;;;5015717;28;20040;-87
2021/10/13 10:44:29;;;;;;;6.60;6.20;;;16.90;66.30;;;;;;5032050;28;20037;-87
2021/10/13 10:47:08;;;;;;;6.03;5.63;;;16.90;66.10;;;;;;5064505;28;20059;-86
2021/10/13 10:49:47;;;;;;;6.07;5.78;;;16.90;66.00;;;;;;5031513;28;20376;-87
2021/10/13 10:52:14;;;;;;;5.40;5.20;;;16.80;65.90;;;;;;5033211;28;20029;-86
2021/10/13 10:54:40;;;;;;;5.90;5.60;;;16.80;66.10;;;;;;5032269;28;20030;-86
2021/10/13 10:57:29;;;;;;;6.30;6.00;;;16.70;66.10;;;;;;5031793;28;20033;-86
2021/10/13 10:59:55;;;;;;;6.18;5.88;;;16.70;65.90;;;;;;5031609;28;20045;-86
2021/10/13 11:02:21;;;;;;;6.82;6.53;;;16.70;65.70;;;;;;5014724;28;20034;-86
2021/10/13 11:05:09;;;;;;;6.40;5.97;;;16.70;65.60;;;;;;5032637;28;20040;-86
2021/10/13 11:07:36;;;;;;;6.40;6.00;;;16.70;65.70;;;;;;5034030;28;20044;-86
2021/10/13 11:10:07;;;;;;;6.78;6.38;;;16.80;65.60;;;;;;5031727;28;20021;-86
2021/10/13 11:12:57;;;;;;;11.38;6.40;;;16.90;65.40;;;;;;5029848;28;20025;-86
2021/10/13 11:15:27;;;;;;;6.03;5.72;;;17.00;65.10;;;;;;5035023;28;20477;-86
2021/10/13 11:17:53;;;;;;;6.43;6.13;;;17.00;64.80;;;;;;5044943;28;20044;-86
2021/10/13 11:20:20;;;;;;;6.47;6.18;;;17.00;64.70;;;;;;5026290;28;20028;-86
2021/10/13 11:22:57;;;;;;;6.10;5.80;;;17.00;64.40;;;;;;4998876;28;20052;-86
2021/10/13 11:25:23;;;;;;;6.30;6.00;;;17.00;64.40;;;;;;5032882;28;20026;-85
2021/10/13 11:28:12;;;;;;;6.75;6.38;;;17.10;64.40;;;;;;5031825;28;20494;-86
2021/10/13 11:30:45;;;;;;;6.65;6.32;;;17.10;64.30;;;;;;4999227;28;20315;-84
2021/10/13 11:33:13;;;;;;;6.13;5.82;;;17.20;64.20;;;;;;5032288;28;20037;-86
2021/10/13 11:35:39;;;;;;;6.28;5.97;;;17.30;64.00;;;;;;5014804;28;20037;-86
2021/10/13 11:38:14;;;;;;;6.45;6.13;;;17.30;63.70;;;;;;5031133;28;20036;-86
2021/10/13 11:40:40;;;;;;;6.65;6.35;;;17.40;63.90;;;;;;5031172;28;20029;-85
2021/10/13 11:43:08;;;;;;;7.13;6.57;;;17.50;63.50;;;;;;5014842;28;20080;-85
2021/10/13 11:45:34;;;;;;;6.43;6.13;;;17.50;63.40;;;;;;5032219;28;20029;-85
2021/10/13 11:48:00;;;;;;;6.47;6.18;;;17.50;63.30;;;;;;5014301;28;20036;-86
2021/10/13 11:50:29;;;;;;;6.55;6.25;;;17.50;63.30;;;;;;5031013;28;20037;-86
2021/10/13 11:52:56;;;;;;;6.43;6.13;;;17.50;63.20;;;;;;5032126;28;20391;-86
2021/10/13 11:55:28;;;;;;;6.70;6.40;;;17.60;63.20;;;;;;5014672;28;20033;-86
2021/10/13 11:58:04;;;;;;;7.30;6.90;;;17.60;63.20;;;;;;5032220;28;20021;-86
2021/10/13 12:00:35;;;;;;;6.38;6.07;;;17.60;63.20;;;;;;5028818;28;20041;-85
2021/10/13 12:03:07;;;;;;;6.35;6.05;;;17.60;63.20;;;;;;5031559;28;20045;-86
2021/10/13 12:05:41;;;;;;;6.18;5.88;;;17.60;63.20;;;;;;5031882;28;20388;-85
2021/10/13 12:08:08;;;;;;;6.35;6.05;;;17.50;63.10;;;;;;5030653;28;20030;-86
2021/10/13 12:10:48;;;;;;;6.63;6.32;;;17.40;63.20;;;;;;5030908;28;20049;-85
2021/10/13 12:13:22;;;;;;;6.03;5.72;;;17.40;63.30;;;;;;5029922;28;20033;-86
2021/10/13 12:15:48;;;;;;;6.60;6.30;;;17.40;63.30;;;;;;5026942;28;20506;-85
2021/10/13 12:18:22;;;;;;;13.68;7.00;;;17.40;63.30;;;;;;5030552;28;20463;-85
2021/10/13 12:20:50;;;;;;;6.35;6.05;;;17.40;63.30;;;;;;5014015;28;20025;-85
2021/10/13 12:23:19;;;;;;;6.68;6.38;;;17.40;63.10;;;;;;5014579;28;20041;-85
2021/10/13 12:25:45;;;;;;;6.40;6.10;;;17.40;63.00;;;;;;5034905;28;20017;-86
2021/10/13 12:28:17;;;;;;;6.78;6.47;;;17.50;63.00;;;;;;5035852;28;20415;-85
2021/10/13 12:30:44;;;;;;;6.95;6.65;;;17.50;62.90;;;;;;5034506;28;20033;-86
2021/10/13 12:33:17;;;;;;;7.22;6.93;;;17.50;62.80;;;;;;5017882;28;20068;-85
2021/10/13 12:35:44;;;;;;;8.10;7.70;;;17.60;62.60;;;;;;5035673;28;20032;-86
2021/10/13 12:38:12;;;;;;;6.95;6.65;;;17.50;62.50;;;;;;5034323;28;20033;-86
2021/10/13 12:40:38;;;;;;;6.57;6.28;;;17.50;62.50;;;;;;5034460;28;20120;-85
2021/10/13 12:43:21;;;;;;;7.35;6.95;;;17.50;62.50;;;;;;5035564;28;20041;-85
2021/10/13 12:45:47;;;;;;;7.32;6.93;;;17.50;62.60;;;;;;5030114;28;20041;-86
2021/10/13 12:48:17;;;;;;;6.63;6.32;;;17.50;62.50;;;;;;5034273;28;20045;-86
2021/10/13 12:51:09;;;;;;;6.50;6.20;;;17.60;62.40;;;;;;5042502;28;20476;-86
2021/10/13 12:53:36;;;;;;;6.97;6.57;;;17.80;62.20;;;;;;5034302;28;20036;-86
2021/10/13 12:56:03;;;;;;;7.10;6.80;;;17.80;61.70;;;;;;5035305;28;20044;-86
2021/10/13 12:58:29;;;;;;;6.97;6.68;;;17.80;61.70;;;;;;5034143;28;20028;-85